createdAt,value
2022-12-14T00:01:37.556Z,56.45
2022-12-14T00:04:04.987Z,55.64
2022-12-14T00:06:33.561Z,56.61
2022-12-14T00:09:04.751Z,56.10
2022-12-14T00:11:33.965Z,55.83
2022-12-14T00:14:04.177Z,56.08
2022-12-14T00:16:34.216Z,55.59
2022-12-14T00:19:02.961Z,55.48
2022-12-14T00:21:30.043Z,55.53
2022-12-14T00:23:59.534Z,56.18
2022-12-14T00:26:31.117Z,55.62
2022-12-14T00:29:01.024Z,55.61
2022-12-14T00:31:29.361Z,55.99
2022-12-14T00:33:56.365Z,56.11
2022-12-14T00:36:24.304Z,56.19
2022-12-14T00:38:51.246Z,55.67
2022-12-14T00:41:18.298Z,55.28
2022-12-14T00:43:49.342Z,55.26
2022-12-14T00:46:17.284Z,54.38
2022-12-14T00:48:44.614Z,54.85
2022-12-14T00:51:14.867Z,55.50
2022-12-14T00:53:44.585Z,55.90
2022-12-14T00:56:12.492Z,55.49
2022-12-14T00:58:39.576Z,54.70
2022-12-14T01:01:13.352Z,54.80
2022-12-14T01:03:40.617Z,55.29
2022-12-14T01:06:14.728Z,55.84
2022-12-14T01:08:41.735Z,54.37
2022-12-14T01:11:10.122Z,54.56
2022-12-14T01:13:38.893Z,55.13
2022-12-14T01:16:12.724Z,55.29
2022-12-14T01:18:42.621Z,55.10
2022-12-14T01:21:17.898Z,54.87
2022-12-14T01:23:46.821Z,54.91
2022-12-14T01:26:16.348Z,54.71
2022-12-14T01:28:43.987Z,55.36
2022-12-14T01:31:16.556Z,54.93
2022-12-14T01:33:44.715Z,56.46
2022-12-14T01:36:15.065Z,55.30
2022-12-14T01:38:42.110Z,55.37
2022-12-14T01:41:20.630Z,54.34
2022-12-14T01:43:51.189Z,54.33
2022-12-14T01:46:28.149Z,54.10
2022-12-14T01:49:02.195Z,54.97
2022-12-14T01:51:32.471Z,54.61
2022-12-14T01:54:05.136Z,54.23
2022-12-14T01:56:41.154Z,54.90
2022-12-14T01:59:14.727Z,54.76
2022-12-14T02:01:43.649Z,55.61
2022-12-14T02:04:16.530Z,54.70
2022-12-14T02:06:48.903Z,54.89
2022-12-14T02:09:22.281Z,55.01
2022-12-14T02:12:02.220Z,54.65
2022-12-14T02:14:30.424Z,54.81
2022-12-14T02:16:58.827Z,55.14
2022-12-14T02:19:25.930Z,53.95
2022-12-14T02:22:18.942Z,54.66
2022-12-14T02:25:24.545Z,54.26
2022-12-14T02:28:27.532Z,53.78
2022-12-14T02:31:06.082Z,53.29
2022-12-14T02:33:49.493Z,52.92
2022-12-14T02:36:29.522Z,53.12
2022-12-14T02:39:14.943Z,53.01
2022-12-14T02:41:54.386Z,53.10
2022-12-14T02:44:34.770Z,53.29
2022-12-14T02:47:14.862Z,54.18
2022-12-14T02:50:02.204Z,52.77
2022-12-14T02:52:41.538Z,52.88
2022-12-14T02:55:18.344Z,53.31
2022-12-14T02:57:53.301Z,52.92
2022-12-14T03:00:20.806Z,51.72
2022-12-14T03:02:51.307Z,52.03
2022-12-14T03:05:18.664Z,52.90
2022-12-14T03:07:53.007Z,52.80
2022-12-14T03:10:36.298Z,52.80
2022-12-14T03:13:15.326Z,53.19
2022-12-14T03:15:46.611Z,52.86
2022-12-14T03:18:21.297Z,53.22
2022-12-14T03:20:54.195Z,53.65
2022-12-14T03:23:30.539Z,53.31
2022-12-14T03:26:09.548Z,53.89
2022-12-14T03:28:45.516Z,53.70
2022-12-14T03:31:20.598Z,53.26
2022-12-14T03:33:54.575Z,53.21
2022-12-14T03:36:30.473Z,53.56
2022-12-14T03:39:02.854Z,54.48
2022-12-14T03:41:37.933Z,53.86
2022-12-14T03:44:23.703Z,53.56
2022-12-14T03:46:58.174Z,53.92
2022-12-14T03:49:48.910Z,53.24
2022-12-14T03:52:26.584Z,53.67
2022-12-14T03:55:06.737Z,53.09
2022-12-14T03:57:50.211Z,53.14
2022-12-14T04:00:22.471Z,53.13
2022-12-14T04:03:00.929Z,53.49
2022-12-14T04:05:44.088Z,53.48
2022-12-14T04:08:30.397Z,53.29
2022-12-14T04:11:23.516Z,52.57
2022-12-14T04:14:17.917Z,52.78
2022-12-14T04:17:08.892Z,52.79
2022-12-14T04:19:44.209Z,52.62
2022-12-14T04:22:25.615Z,53.83
2022-12-14T04:25:17.418Z,52.98
2022-12-14T04:27:51.926Z,52.59
2022-12-14T04:30:19.444Z,53.48
2022-12-14T04:32:51.861Z,52.74
2022-12-14T04:35:25.603Z,53.11
2022-12-14T04:38:01.115Z,52.60
2022-12-14T04:40:33.659Z,53.68
2022-12-14T04:43:09.947Z,53.16
2022-12-14T04:45:43.935Z,53.43
2022-12-14T04:48:24.435Z,52.82
2022-12-14T04:50:59.879Z,53.59
2022-12-14T04:53:34.765Z,53.65
2022-12-14T04:56:10.992Z,53.60
2022-12-14T04:58:40.682Z,54.05
2022-12-14T05:01:32.811Z,53.36
2022-12-14T05:04:13.857Z,54.55
2022-12-14T05:06:55.044Z,54.02
2022-12-14T05:09:29.390Z,53.90
2022-12-14T05:12:07.211Z,52.75
2022-12-14T05:14:42.169Z,53.56
2022-12-14T05:17:09.941Z,54.25
2022-12-14T05:19:43.944Z,53.54
2022-12-14T05:22:17.850Z,52.70
2022-12-14T05:24:46.232Z,52.42
2022-12-14T05:27:13.309Z,52.57
2022-12-14T05:29:40.302Z,53.48
2022-12-14T05:32:10.955Z,53.32
2022-12-14T05:34:38.258Z,52.57
2022-12-14T05:37:05.309Z,53.18
2022-12-14T05:39:34.970Z,52.43
2022-12-14T05:42:03.524Z,53.74
2022-12-14T05:44:32.005Z,53.32
2022-12-14T05:46:59.408Z,53.41
2022-12-14T05:49:26.451Z,53.23
2022-12-14T05:51:53.468Z,52.68
2022-12-14T05:54:20.519Z,53.19
2022-12-14T05:56:47.541Z,53.55
2022-12-14T05:59:16.668Z,53.00
2022-12-14T06:01:44.803Z,52.61
2022-12-14T06:04:17.871Z,52.46
2022-12-14T06:06:45.648Z,52.36
2022-12-14T06:09:15.989Z,51.58
2022-12-14T06:11:45.220Z,51.93
2022-12-14T06:14:13.360Z,52.90
2022-12-14T06:16:44.059Z,52.28
2022-12-14T06:19:13.212Z,53.11
2022-12-14T06:21:43.130Z,53.11
2022-12-14T06:24:12.124Z,53.08
2022-12-14T06:26:42.837Z,53.12
2022-12-14T06:29:16.091Z,53.22
2022-12-14T06:31:45.698Z,53.61
2022-12-14T06:34:17.659Z,52.24
2022-12-14T06:36:46.733Z,53.31
2022-12-14T06:39:17.085Z,52.64
2022-12-14T06:41:44.577Z,52.98
2022-12-14T06:44:14.125Z,53.05
2022-12-14T06:46:42.342Z,52.15
2022-12-14T06:49:15.776Z,52.16
2022-12-14T06:51:43.778Z,53.30
2022-12-14T06:54:12.340Z,52.84
2022-12-14T06:56:40.794Z,52.57
2022-12-14T06:59:08.844Z,52.00
2022-12-14T07:01:37.419Z,52.08
2022-12-14T07:04:05.840Z,51.94
2022-12-14T07:06:37.863Z,52.70
2022-12-14T07:09:07.354Z,51.91
2022-12-14T07:11:34.457Z,52.49
2022-12-14T07:14:05.827Z,52.30
2022-12-14T07:16:34.816Z,51.37
2022-12-14T07:19:01.933Z,51.46
2022-12-14T07:21:29.334Z,52.39
2022-12-14T07:24:04.052Z,52.75
2022-12-14T07:26:31.460Z,52.07
2022-12-14T07:29:02.639Z,52.21
2022-12-14T07:31:30.022Z,52.26
2022-12-14T07:34:00.072Z,51.13
2022-12-14T07:36:29.746Z,51.69
2022-12-14T07:38:58.303Z,51.76
2022-12-14T07:41:29.338Z,50.98
2022-12-14T07:43:57.951Z,51.08
2022-12-14T07:46:27.958Z,50.81
2022-12-14T07:48:58.547Z,51.17
2022-12-14T07:51:29.559Z,50.64
2022-12-14T07:53:59.888Z,50.50
2022-12-14T07:56:30.192Z,50.75
2022-12-14T07:58:59.432Z,51.34
2022-12-14T08:01:29.776Z,51.03
2022-12-14T08:03:59.844Z,50.91
2022-12-14T08:06:29.452Z,51.07
2022-12-14T08:08:59.145Z,50.28
2022-12-14T08:11:26.841Z,50.31
2022-12-14T08:13:55.105Z,50.74
2022-12-14T08:16:23.283Z,49.88
2022-12-14T08:18:52.984Z,50.40
2022-12-14T08:21:22.042Z,49.17
2022-12-14T08:23:51.010Z,48.88
2022-12-14T08:26:20.177Z,49.16
2022-12-14T08:28:48.510Z,49.61
2022-12-14T08:31:18.679Z,48.96
2022-12-14T08:33:47.576Z,49.50
2022-12-14T08:36:18.057Z,49.85
2022-12-14T08:38:45.535Z,49.57
2022-12-14T08:41:14.687Z,48.98
2022-12-14T08:43:43.098Z,48.94
2022-12-14T08:46:11.155Z,49.59
2022-12-14T08:48:38.284Z,50.08
2022-12-14T08:51:10.764Z,49.57
2022-12-14T08:53:38.814Z,48.77
2022-12-14T08:56:09.177Z,48.36
2022-12-14T08:58:38.185Z,48.77
2022-12-14T09:01:15.403Z,49.16
2022-12-14T09:03:44.852Z,49.33
2022-12-14T09:06:37.318Z,48.61
2022-12-14T09:09:08.176Z,49.57
2022-12-14T09:11:41.031Z,49.72
2022-12-14T09:14:09.692Z,48.88
2022-12-14T09:16:40.078Z,49.31
2022-12-14T09:19:16.009Z,49.49
2022-12-14T09:21:43.431Z,48.61
2022-12-14T09:24:10.499Z,50.06
2022-12-14T09:26:37.491Z,49.74
2022-12-14T09:29:04.568Z,49.48
2022-12-14T09:31:31.726Z,50.00
2022-12-14T09:34:00.528Z,49.62
2022-12-14T09:36:28.593Z,50.71
2022-12-14T09:38:57.970Z,49.98
2022-12-14T09:41:50.931Z,49.58
2022-12-14T09:44:34.059Z,49.26
2022-12-14T09:47:11.898Z,50.90
2022-12-14T09:49:47.514Z,49.86
2022-12-14T09:52:20.079Z,50.23
2022-12-14T09:54:49.704Z,50.13
2022-12-14T09:57:39.070Z,50.19
2022-12-14T10:00:15.080Z,49.91
2022-12-14T10:03:06.582Z,49.16
2022-12-14T10:05:54.988Z,49.50
2022-12-14T10:08:30.284Z,49.42
2022-12-14T10:11:07.469Z,48.92
2022-12-14T10:13:48.365Z,49.04
2022-12-14T10:16:31.631Z,48.37
2022-12-14T10:19:27.694Z,48.42
2022-12-14T10:22:03.668Z,48.25
2022-12-14T10:24:36.175Z,48.16
2022-12-14T10:27:09.408Z,47.73
2022-12-14T10:29:46.524Z,47.96
2022-12-14T10:32:22.516Z,47.87
2022-12-14T10:34:51.609Z,48.35
2022-12-14T10:37:39.198Z,48.23
2022-12-14T10:40:33.707Z,48.50
2022-12-14T10:43:43.545Z,48.23
2022-12-14T10:46:24.889Z,48.39
2022-12-14T10:49:02.428Z,49.02
2022-12-14T10:51:39.769Z,48.45
2022-12-14T10:54:22.606Z,48.71
2022-12-14T10:56:51.020Z,48.68
2022-12-14T10:59:39.839Z,48.57
2022-12-14T11:02:17.681Z,48.26
2022-12-14T11:04:51.298Z,48.56
2022-12-14T11:07:22.657Z,48.39
2022-12-14T11:09:52.284Z,48.33
2022-12-14T11:12:23.848Z,48.32
2022-12-14T11:14:58.058Z,48.50
2022-12-14T11:17:36.742Z,48.06
2022-12-14T11:20:19.209Z,48.32
2022-12-14T11:22:49.538Z,48.19
2022-12-14T11:25:37.924Z,47.86
2022-12-14T11:28:25.670Z,48.19
2022-12-14T11:31:00.975Z,47.90
2022-12-14T11:33:38.062Z,48.32
2022-12-14T11:36:09.841Z,47.80
2022-12-14T11:38:39.451Z,47.85
2022-12-14T11:41:11.811Z,45.38
2022-12-14T11:43:39.663Z,43.80
2022-12-14T11:46:07.706Z,41.28
2022-12-14T11:48:38.319Z,40.45
2022-12-14T11:51:13.912Z,40.36
2022-12-14T11:53:41.423Z,38.73
2022-12-14T11:56:16.798Z,38.09
2022-12-14T11:58:52.265Z,38.50
2022-12-14T12:01:26.702Z,39.22
2022-12-14T12:04:01.017Z,39.57
2022-12-14T12:06:30.227Z,39.63
2022-12-14T12:09:01.286Z,39.73
2022-12-14T12:11:34.863Z,40.24
2022-12-14T12:14:10.912Z,39.69
2022-12-14T12:16:44.602Z,40.02
2022-12-14T12:19:19.922Z,39.85
2022-12-14T12:21:47.422Z,41.01
2022-12-14T12:24:21.774Z,41.68
2022-12-14T12:26:55.375Z,41.08
2022-12-14T12:29:29.612Z,42.02
2022-12-14T12:32:03.639Z,41.34
2022-12-14T12:34:39.449Z,41.88
2022-12-14T12:37:31.528Z,42.93
2022-12-14T12:40:10.305Z,42.12
2022-12-14T12:42:48.373Z,42.03
2022-12-14T12:45:25.296Z,43.24
2022-12-14T12:48:02.958Z,42.45
2022-12-14T12:50:44.117Z,43.49
2022-12-14T12:53:24.391Z,43.58
2022-12-14T12:55:56.052Z,43.66
2022-12-14T12:58:29.812Z,43.01
2022-12-14T13:01:03.450Z,43.04
2022-12-14T13:03:38.801Z,43.95
2022-12-14T13:06:17.615Z,42.99
2022-12-14T13:08:50.006Z,43.02
2022-12-14T13:11:27.186Z,43.48
2022-12-14T13:14:02.907Z,43.83
2022-12-14T13:16:36.893Z,44.21
2022-12-14T13:19:48.654Z,44.48
2022-12-14T13:22:14.662Z,44.66
2022-12-14T13:24:49.553Z,44.64
2022-12-14T13:28:04.191Z,45.15
2022-12-14T13:31:02.421Z,45.21
2022-12-14T13:34:12.839Z,45.10
2022-12-14T13:37:21.190Z,45.89
2022-12-14T13:40:54.279Z,45.56
2022-12-14T13:43:43.844Z,46.13
2022-12-14T13:46:22.401Z,45.90
2022-12-14T13:48:53.966Z,45.94
2022-12-14T13:51:50.757Z,46.13
2022-12-14T13:54:30.284Z,46.11
2022-12-14T13:57:08.660Z,46.25
2022-12-14T13:59:42.463Z,46.21
2022-12-14T14:02:39.739Z,46.36
2022-12-14T14:05:43.807Z,46.63
2022-12-14T14:08:36.043Z,46.63
2022-12-14T14:11:45.111Z,46.77
2022-12-14T14:14:40.732Z,47.10
2022-12-14T14:17:17.646Z,47.28
2022-12-14T14:19:49.563Z,46.89
2022-12-14T14:22:24.329Z,46.74
2022-12-14T14:25:00.416Z,46.66
2022-12-14T14:27:36.179Z,47.19
2022-12-14T14:30:22.732Z,47.45
2022-12-14T14:33:07.493Z,47.64
2022-12-14T14:35:42.117Z,47.44
2022-12-14T14:38:24.978Z,47.54
2022-12-14T14:41:16.011Z,47.94
2022-12-14T14:43:50.582Z,47.82
2022-12-14T14:46:23.213Z,47.57
2022-12-14T14:48:55.333Z,48.01
2022-12-14T14:51:28.401Z,47.39
2022-12-14T14:55:07.066Z,47.32
2022-12-14T14:57:56.763Z,46.25
2022-12-14T15:00:24.856Z,46.71
2022-12-14T15:02:55.520Z,47.11
2022-12-14T15:05:43.895Z,47.28
2022-12-14T15:08:19.518Z,47.94
2022-12-14T15:10:48.249Z,47.89
2022-12-14T15:13:22.938Z,48.38
2022-12-14T15:15:53.431Z,48.45
2022-12-14T15:18:24.259Z,48.57
2022-12-14T15:21:00.827Z,48.88
2022-12-14T15:23:36.711Z,48.89
2022-12-14T15:26:17.134Z,48.76
2022-12-14T15:28:49.538Z,48.89
2022-12-14T15:31:18.570Z,49.07
2022-12-14T15:33:48.614Z,48.98
2022-12-14T15:36:19.854Z,48.84
2022-12-14T15:38:55.195Z,49.11
2022-12-14T15:41:25.885Z,49.19
2022-12-14T15:43:58.146Z,48.99
2022-12-14T15:46:31.652Z,49.40
2022-12-14T15:49:03.463Z,49.57
2022-12-14T15:51:36.187Z,49.84
2022-12-14T15:54:07.773Z,49.77
2022-12-14T15:56:37.893Z,49.78
2022-12-14T15:59:16.213Z,49.52
2022-12-14T16:01:54.265Z,49.50
2022-12-14T16:04:27.559Z,49.61
2022-12-14T16:07:08.120Z,49.64
2022-12-14T16:09:41.398Z,49.95
2022-12-14T16:12:18.510Z,50.17
2022-12-14T16:14:54.075Z,50.45
2022-12-14T16:17:26.374Z,50.48
2022-12-14T16:20:00.520Z,50.51
2022-12-14T16:22:31.969Z,50.54
2022-12-14T16:25:16.705Z,51.13
2022-12-14T16:27:50.179Z,51.22
2022-12-14T16:30:27.622Z,51.48
2022-12-14T16:33:14.963Z,50.76
2022-12-14T16:35:43.444Z,50.63
2022-12-14T16:38:14.873Z,50.75
2022-12-14T16:40:53.126Z,50.85
2022-12-14T16:43:29.299Z,50.88
2022-12-14T16:46:18.047Z,50.96
2022-12-14T16:49:18.965Z,51.48
2022-12-14T16:52:06.755Z,51.64
2022-12-14T16:54:36.608Z,51.24
2022-12-14T16:57:16.979Z,51.69
2022-12-14T16:59:48.551Z,51.69
2022-12-14T17:02:31.460Z,52.06
2022-12-14T17:05:02.373Z,51.31
2022-12-14T17:07:32.917Z,51.24
2022-12-14T17:10:01.582Z,51.18
2022-12-14T17:12:28.634Z,51.07
2022-12-14T17:14:55.994Z,51.87
2022-12-14T17:17:33.263Z,51.24
2022-12-14T17:20:03.962Z,51.31
2022-12-14T17:22:33.616Z,51.83
2022-12-14T17:25:02.434Z,52.24
2022-12-14T17:27:30.443Z,51.90
2022-12-14T17:29:57.612Z,51.84
2022-12-14T17:32:29.802Z,51.74
2022-12-14T17:34:57.147Z,51.86
2022-12-14T17:37:30.999Z,51.81
2022-12-14T17:40:04.708Z,51.91
2022-12-14T17:42:31.890Z,52.16
2022-12-14T17:45:00.736Z,52.76
2022-12-14T17:47:28.086Z,52.99
2022-12-14T17:49:55.479Z,52.43
2022-12-14T17:52:28.175Z,52.88
2022-12-14T17:54:55.253Z,52.57
2022-12-14T17:57:26.384Z,53.55
2022-12-14T18:00:12.312Z,53.08
2022-12-14T18:02:40.721Z,53.08
2022-12-14T18:05:18.313Z,53.09
2022-12-14T18:07:45.381Z,53.01
2022-12-14T18:10:14.372Z,53.20
2022-12-14T18:12:43.059Z,53.37
2022-12-14T18:15:18.274Z,53.72
2022-12-14T18:17:45.612Z,53.92
2022-12-14T18:20:17.623Z,53.04
2022-12-14T18:22:45.348Z,53.61
2022-12-14T18:25:31.487Z,53.20
2022-12-14T18:28:01.896Z,53.81
2022-12-14T18:30:35.063Z,53.03
2022-12-14T18:33:04.390Z,53.88
2022-12-14T18:35:34.077Z,53.15
2022-12-14T18:38:01.271Z,53.99
2022-12-14T18:40:29.874Z,53.16
2022-12-14T18:42:57.951Z,53.78
2022-12-14T18:45:29.568Z,53.15
2022-12-14T18:47:57.385Z,54.29
2022-12-14T18:50:24.926Z,54.07
2022-12-14T18:52:52.312Z,54.04
2022-12-14T18:55:22.615Z,53.64
2022-12-14T18:57:52.864Z,54.00
2022-12-14T19:00:22.972Z,54.69
2022-12-14T19:02:52.990Z,54.27
2022-12-14T19:05:25.917Z,54.01
2022-12-14T19:07:54.412Z,53.66
2022-12-14T19:10:24.630Z,53.89
2022-12-14T19:12:52.584Z,54.75
2022-12-14T19:15:23.059Z,53.84
2022-12-14T19:17:52.539Z,54.58
2022-12-14T19:20:23.138Z,54.71
2022-12-14T19:22:51.374Z,54.67
2022-12-14T19:25:20.824Z,54.43
2022-12-14T19:30:39.920Z,54.89
2022-12-14T19:33:11.089Z,55.45
2022-12-14T19:35:40.713Z,55.64
2022-12-14T19:38:14.366Z,55.40
2022-12-14T19:40:42.091Z,55.75
2022-12-14T19:43:09.126Z,55.63
2022-12-14T19:45:39.381Z,55.16
2022-12-14T19:48:12.967Z,55.40
2022-12-14T19:50:40.854Z,54.79
2022-12-14T19:53:07.821Z,55.29
2022-12-14T19:55:35.671Z,55.67
2022-12-14T19:58:03.002Z,55.19
2022-12-14T20:00:30.861Z,55.28
2022-12-14T20:02:57.986Z,55.63
2022-12-14T20:05:26.406Z,55.29
2022-12-14T20:07:53.825Z,54.30
2022-12-14T20:10:21.057Z,54.45
2022-12-14T20:12:48.292Z,54.60
2022-12-14T20:15:15.304Z,54.29
2022-12-14T20:17:42.563Z,53.61
2022-12-14T20:20:12.038Z,54.34
2022-12-14T20:22:40.807Z,54.49
2022-12-14T20:25:09.068Z,55.06
2022-12-14T20:27:40.528Z,54.91
2022-12-14T20:30:10.625Z,55.44
2022-12-14T20:32:37.677Z,56.35
2022-12-14T20:35:07.403Z,56.23
2022-12-14T20:37:34.316Z,55.06
2022-12-14T20:40:04.122Z,55.86
2022-12-14T20:42:31.342Z,55.98
2022-12-14T20:45:01.365Z,56.02
2022-12-14T20:47:32.426Z,56.06
2022-12-14T20:49:59.374Z,55.14
2022-12-14T20:52:26.312Z,54.96
2022-12-14T20:54:54.620Z,55.86
2022-12-14T20:57:23.276Z,55.02
2022-12-14T20:59:50.199Z,55.96
2022-12-14T21:02:20.491Z,55.30
2022-12-14T21:04:47.833Z,55.19
2022-12-14T21:07:15.169Z,55.66
2022-12-14T21:09:42.170Z,56.42
2022-12-14T21:12:22.156Z,56.25
2022-12-14T21:14:54.677Z,55.77
2022-12-14T21:17:25.171Z,55.12
2022-12-14T21:19:52.519Z,55.89
2022-12-14T21:22:23.311Z,55.49
2022-12-14T21:25:07.330Z,55.45
2022-12-14T21:27:38.671Z,54.96
2022-12-14T21:30:11.233Z,54.92
2022-12-14T21:32:39.267Z,55.26
2022-12-14T21:35:07.547Z,55.09
2022-12-14T21:37:36.702Z,53.95
2022-12-14T21:40:05.241Z,53.81
2022-12-14T21:42:32.165Z,54.12
2022-12-14T21:44:59.219Z,54.38
2022-12-14T21:47:29.767Z,54.05
2022-12-14T21:49:57.182Z,54.46
2022-12-14T21:52:27.420Z,53.70
2022-12-14T21:54:54.767Z,53.72
2022-12-14T21:57:42.667Z,53.70
2022-12-14T22:00:11.413Z,52.16
2022-12-14T22:02:41.812Z,52.89
2022-12-14T22:05:09.672Z,52.66
2022-12-14T22:07:36.764Z,53.69
2022-12-14T22:10:05.374Z,53.68
2022-12-14T22:12:32.495Z,52.97
2022-12-14T22:14:59.615Z,53.12
2022-12-14T22:17:26.639Z,52.46
2022-12-14T22:19:55.157Z,52.87
2022-12-14T22:22:23.086Z,52.91
2022-12-14T22:24:51.137Z,52.24
2022-12-14T22:27:19.592Z,51.96
2022-12-14T22:29:46.775Z,52.02
2022-12-14T22:32:14.780Z,52.31
2022-12-14T22:34:42.179Z,52.72
2022-12-14T22:37:14.134Z,52.85
2022-12-14T22:39:41.080Z,52.87
2022-12-14T22:42:08.065Z,51.71
2022-12-14T22:44:34.992Z,51.77
2022-12-14T22:47:01.938Z,51.98
2022-12-14T22:49:28.898Z,53.10
2022-12-14T22:51:56.384Z,52.89
2022-12-14T22:54:27.707Z,53.20
2022-12-14T22:57:00.173Z,53.05
2022-12-14T22:59:36.201Z,52.79
2022-12-14T23:02:04.238Z,52.96
2022-12-14T23:04:31.781Z,52.71
2022-12-14T23:06:58.974Z,52.68
2022-12-14T23:09:45.842Z,52.19
2022-12-14T23:12:31.325Z,52.69
2022-12-14T23:15:18.034Z,52.38
2022-12-14T23:18:03.921Z,51.65
2022-12-14T23:20:49.473Z,51.75
2022-12-14T23:23:35.548Z,52.17
2022-12-14T23:26:23.578Z,52.39
2022-12-14T23:29:09.463Z,51.35
2022-12-14T23:31:55.148Z,52.01
2022-12-14T23:34:40.630Z,52.37
2022-12-14T23:37:26.501Z,53.03
2022-12-14T23:40:12.162Z,53.32
2022-12-14T23:42:58.836Z,53.55
2022-12-14T23:45:44.359Z,53.00
2022-12-14T23:48:30.236Z,52.48
2022-12-14T23:51:15.722Z,52.46
2022-12-14T23:54:01.262Z,51.79
2022-12-14T23:56:46.722Z,52.89
2022-12-14T23:59:33.537Z,53.61
